createdAt,value
2022-10-26T00:01:18.891Z,87.33
2022-10-26T00:03:47.823Z,87.08
2022-10-26T00:06:17.821Z,86.86
2022-10-26T00:08:47.386Z,86.90
2022-10-26T00:11:16.402Z,86.63
2022-10-26T00:13:47.745Z,86.80
2022-10-26T00:16:19.557Z,86.81
2022-10-26T00:18:48.786Z,87.10
2022-10-26T00:21:17.749Z,87.01
2022-10-26T00:23:46.376Z,87.13
2022-10-26T00:26:14.633Z,87.67
2022-10-26T00:28:43.023Z,87.91
2022-10-26T00:31:14.838Z,88.17
2022-10-26T00:33:43.181Z,88.24
2022-10-26T00:36:13.969Z,88.02
2022-10-26T00:38:46.210Z,87.98
2022-10-26T00:41:16.794Z,87.88
2022-10-26T00:43:45.546Z,88.19
2022-10-26T00:46:18.526Z,88.11
2022-10-26T00:48:51.066Z,88.35
2022-10-26T00:51:25.750Z,88.06
2022-10-26T00:53:55.678Z,88.11
2022-10-26T00:56:24.808Z,88.12
2022-10-26T00:58:53.760Z,88.08
2022-10-26T01:01:23.538Z,87.82
2022-10-26T01:03:52.058Z,87.72
2022-10-26T01:06:20.511Z,87.65
2022-10-26T01:08:49.662Z,87.65
2022-10-26T01:11:17.977Z,87.35
2022-10-26T01:13:48.130Z,87.31
2022-10-26T01:16:46.806Z,87.25
2022-10-26T01:19:45.783Z,87.50
2022-10-26T01:22:17.484Z,87.85
2022-10-26T01:25:05.644Z,87.42
2022-10-26T01:27:35.998Z,87.35
2022-10-26T01:30:36.654Z,87.26
2022-10-26T01:33:21.902Z,86.98
2022-10-26T01:35:56.485Z,87.37
2022-10-26T01:38:32.166Z,87.34
2022-10-26T01:41:07.385Z,87.38
2022-10-26T01:43:41.277Z,87.55
2022-10-26T01:46:12.885Z,87.31
2022-10-26T01:48:43.031Z,87.35
2022-10-26T01:51:13.197Z,87.14
2022-10-26T01:53:46.969Z,86.99
2022-10-26T01:56:20.664Z,86.86
2022-10-26T01:59:18.075Z,86.60
2022-10-26T02:02:30.043Z,86.99
2022-10-26T02:05:16.291Z,86.79
2022-10-26T02:07:54.736Z,86.84
2022-10-26T02:10:35.326Z,86.69
2022-10-26T02:13:10.733Z,86.75
2022-10-26T02:15:48.102Z,86.67
2022-10-26T02:18:30.254Z,86.21
2022-10-26T02:21:02.358Z,86.17
2022-10-26T02:23:34.051Z,85.98
2022-10-26T02:26:04.771Z,85.51
2022-10-26T02:28:37.186Z,85.03
2022-10-26T02:31:07.972Z,84.79
2022-10-26T02:33:42.170Z,84.33
2022-10-26T02:36:14.751Z,84.07
2022-10-26T02:38:44.103Z,83.70
2022-10-26T02:41:14.115Z,83.36
2022-10-26T02:43:46.808Z,83.22
2022-10-26T02:46:19.137Z,82.96
2022-10-26T02:48:48.921Z,83.04
2022-10-26T02:51:22.165Z,82.90
2022-10-26T02:53:55.582Z,82.63
2022-10-26T02:56:29.842Z,82.63
2022-10-26T02:59:02.288Z,82.66
2022-10-26T03:01:34.647Z,82.58
2022-10-26T03:04:04.834Z,82.11
2022-10-26T03:06:33.223Z,81.79
2022-10-26T03:09:01.513Z,81.62
2022-10-26T03:11:29.779Z,81.13
2022-10-26T03:13:57.997Z,81.08
2022-10-26T03:16:26.326Z,80.94
2022-10-26T03:18:54.569Z,80.54
2022-10-26T03:21:24.191Z,80.49
2022-10-26T03:23:52.418Z,80.26
2022-10-26T03:26:20.730Z,80.10
2022-10-26T03:28:49.024Z,79.97
2022-10-26T03:31:17.287Z,79.77
2022-10-26T03:33:45.600Z,79.72
2022-10-26T03:36:13.861Z,79.66
2022-10-26T03:38:43.514Z,80.04
2022-10-26T03:41:12.740Z,80.18
2022-10-26T03:43:41.065Z,80.07
2022-10-26T03:46:09.310Z,80.14
2022-10-26T03:48:37.577Z,80.13
2022-10-26T03:51:05.988Z,80.10
2022-10-26T03:53:34.219Z,79.80
2022-10-26T03:56:03.902Z,79.85
2022-10-26T03:58:32.111Z,79.85
2022-10-26T04:01:00.513Z,79.75
2022-10-26T04:03:29.723Z,79.74
2022-10-26T04:05:58.309Z,79.58
2022-10-26T04:08:26.616Z,79.39
2022-10-26T04:10:54.875Z,79.67
2022-10-26T04:13:25.887Z,79.50
2022-10-26T04:15:54.203Z,79.50
2022-10-26T04:18:22.478Z,79.34
2022-10-26T04:20:51.795Z,78.99
2022-10-26T04:23:21.162Z,79.04
2022-10-26T04:25:49.494Z,78.94
2022-10-26T04:28:17.699Z,78.76
2022-10-26T04:30:49.302Z,78.64
2022-10-26T04:33:17.540Z,78.72
2022-10-26T04:35:46.353Z,78.38
2022-10-26T04:38:15.079Z,78.08
2022-10-26T04:40:43.274Z,78.23
2022-10-26T04:43:11.962Z,78.33
2022-10-26T04:45:40.258Z,78.27
2022-10-26T04:48:12.718Z,77.85
2022-10-26T04:50:41.831Z,78.01
2022-10-26T04:53:11.191Z,78.27
2022-10-26T04:55:39.636Z,78.29
2022-10-26T04:58:08.175Z,78.29
2022-10-26T05:00:36.606Z,78.40
2022-10-26T05:03:07.460Z,78.09
2022-10-26T05:05:37.861Z,78.33
2022-10-26T05:08:06.799Z,78.28
2022-10-26T05:10:35.401Z,78.40
2022-10-26T05:13:03.697Z,78.47
2022-10-26T05:15:32.302Z,78.45
2022-10-26T05:18:02.960Z,78.54
2022-10-26T05:20:33.590Z,78.45
2022-10-26T05:23:06.616Z,78.28
2022-10-26T05:25:37.285Z,78.14
2022-10-26T05:28:08.116Z,78.36
2022-10-26T05:30:36.444Z,77.98
2022-10-26T05:33:04.769Z,77.95
2022-10-26T05:35:33.470Z,77.67
2022-10-26T05:38:07.707Z,77.39
2022-10-26T05:40:35.986Z,77.12
2022-10-26T05:43:05.999Z,76.90
2022-10-26T05:45:34.212Z,76.99
2022-10-26T05:48:02.999Z,76.69
2022-10-26T05:50:31.740Z,76.53
2022-10-26T05:53:01.011Z,76.39
2022-10-26T05:55:31.650Z,76.57
2022-10-26T05:58:00.523Z,76.75
2022-10-26T06:00:30.536Z,76.61
2022-10-26T06:03:10.094Z,76.37
2022-10-26T06:05:46.913Z,76.38
2022-10-26T06:08:15.781Z,76.03
2022-10-26T06:10:46.093Z,76.23
2022-10-26T06:13:14.898Z,76.09
2022-10-26T06:15:56.582Z,76.14
2022-10-26T06:18:35.293Z,76.14
2022-10-26T06:21:21.595Z,76.12
2022-10-26T06:23:57.077Z,76.22
2022-10-26T06:26:35.899Z,76.66
2022-10-26T06:29:18.069Z,76.73
2022-10-26T06:31:48.121Z,76.57
2022-10-26T06:34:24.187Z,76.65
2022-10-26T06:39:23.561Z,76.80
2022-10-26T06:41:54.811Z,76.79
2022-10-26T06:44:27.121Z,77.17
2022-10-26T06:47:03.458Z,77.14
2022-10-26T06:49:37.001Z,77.05
2022-10-26T06:52:13.254Z,77.25
2022-10-26T06:54:49.398Z,77.44
2022-10-26T06:57:21.255Z,77.47
2022-10-26T06:59:52.383Z,77.26
2022-10-26T07:02:22.087Z,77.35
2022-10-26T07:04:50.580Z,77.43
2022-10-26T07:07:21.477Z,77.78
2022-10-26T07:09:50.588Z,77.69
2022-10-26T07:12:21.249Z,77.89
2022-10-26T07:14:49.531Z,77.92
2022-10-26T07:17:17.784Z,77.99
2022-10-26T07:19:46.117Z,77.96
2022-10-26T07:22:14.275Z,77.55
2022-10-26T07:24:42.662Z,77.59
2022-10-26T07:27:10.865Z,77.85
2022-10-26T07:29:40.503Z,77.62
2022-10-26T07:32:08.943Z,77.69
2022-10-26T07:34:37.184Z,77.68
2022-10-26T07:37:07.505Z,77.49
2022-10-26T07:39:35.823Z,77.51
2022-10-26T07:42:04.693Z,77.84
2022-10-26T07:44:32.926Z,77.79
2022-10-26T07:47:02.651Z,77.44
2022-10-26T07:49:31.221Z,77.87
2022-10-26T07:51:59.495Z,77.20
2022-10-26T07:54:27.960Z,77.07
2022-10-26T07:56:56.470Z,76.41
2022-10-26T07:59:25.111Z,75.83
2022-10-26T08:01:53.988Z,75.54
2022-10-26T08:04:23.692Z,75.02
2022-10-26T08:06:52.046Z,74.54
2022-10-26T08:09:20.513Z,74.54
2022-10-26T08:11:48.713Z,74.39
2022-10-26T08:14:16.987Z,74.41
2022-10-26T08:16:45.742Z,74.40
2022-10-26T08:19:14.100Z,74.65
2022-10-26T08:21:43.704Z,74.83
2022-10-26T08:24:12.270Z,74.89
2022-10-26T08:26:40.485Z,75.02
2022-10-26T08:29:08.963Z,74.92
2022-10-26T08:31:37.134Z,75.33
2022-10-26T08:34:05.534Z,74.76
2022-10-26T08:36:33.823Z,74.33
2022-10-26T08:39:03.615Z,74.10
2022-10-26T08:41:44.917Z,73.65
2022-10-26T08:44:26.325Z,72.84
2022-10-26T08:46:59.797Z,72.50
2022-10-26T08:49:33.991Z,72.40
2022-10-26T08:52:04.592Z,71.73
2022-10-26T08:54:39.232Z,71.43
2022-10-26T08:57:18.121Z,71.57
2022-10-26T08:59:52.286Z,71.63
2022-10-26T09:02:21.736Z,71.84
2022-10-26T09:04:50.074Z,71.75
2022-10-26T09:07:32.733Z,71.52
2022-10-26T09:10:12.445Z,71.21
2022-10-26T09:12:47.992Z,70.73
2022-10-26T09:15:25.558Z,70.81
2022-10-26T09:18:03.675Z,71.02
2022-10-26T09:20:54.630Z,71.05
2022-10-26T09:23:33.436Z,71.62
2022-10-26T09:26:05.413Z,71.55
2022-10-26T09:28:37.193Z,70.90
2022-10-26T09:31:06.082Z,70.86
2022-10-26T09:33:38.370Z,70.79
2022-10-26T09:36:15.987Z,70.08
2022-10-26T09:38:50.519Z,69.63
2022-10-26T09:41:31.659Z,69.44
2022-10-26T09:44:06.798Z,69.21
2022-10-26T09:46:45.907Z,69.23
2022-10-26T09:49:16.577Z,69.32
2022-10-26T09:51:46.424Z,68.70
2022-10-26T09:54:17.381Z,68.12
2022-10-26T09:56:51.461Z,67.72
2022-10-26T09:59:23.542Z,67.45
2022-10-26T10:01:52.011Z,68.13
2022-10-26T10:04:22.770Z,67.83
2022-10-26T10:06:52.875Z,67.40
2022-10-26T10:09:22.669Z,66.70
2022-10-26T10:11:58.045Z,66.33
2022-10-26T10:14:28.002Z,65.78
2022-10-26T10:16:58.788Z,66.18
2022-10-26T10:19:28.855Z,66.02
2022-10-26T10:21:59.743Z,65.73
2022-10-26T10:24:30.154Z,64.35
2022-10-26T10:27:02.154Z,65.04
2022-10-26T10:29:32.704Z,64.45
2022-10-26T10:32:02.861Z,63.80
2022-10-26T10:34:33.739Z,63.31
2022-10-26T10:37:03.434Z,62.64
2022-10-26T10:39:39.020Z,63.26
2022-10-26T10:42:19.804Z,63.52
2022-10-26T10:44:51.899Z,63.76
2022-10-26T10:47:24.418Z,64.13
2022-10-26T10:49:55.832Z,64.13
2022-10-26T10:52:29.019Z,63.34
2022-10-26T10:55:12.893Z,63.43
2022-10-26T10:57:56.523Z,63.41
2022-10-26T11:00:25.979Z,63.75
2022-10-26T11:03:16.827Z,64.02
2022-10-26T11:06:01.268Z,62.79
2022-10-26T11:08:33.931Z,61.94
2022-10-26T11:11:07.340Z,61.33
2022-10-26T11:13:41.050Z,61.08
2022-10-26T11:16:16.323Z,61.28
2022-10-26T11:18:49.606Z,60.36
2022-10-26T11:21:28.357Z,59.32
2022-10-26T11:24:11.179Z,60.20
2022-10-26T11:26:46.321Z,60.12
2022-10-26T11:29:25.040Z,59.79
2022-10-26T11:31:59.059Z,59.82
2022-10-26T11:34:33.640Z,59.66
2022-10-26T11:37:07.137Z,60.51
2022-10-26T11:39:44.084Z,58.97
2022-10-26T11:42:23.075Z,59.57
2022-10-26T11:44:57.148Z,58.82
2022-10-26T11:47:35.702Z,60.16
2022-10-26T11:50:17.232Z,58.28
2022-10-26T11:52:50.559Z,58.29
2022-10-26T11:55:20.181Z,58.05
2022-10-26T11:57:51.621Z,57.85
2022-10-26T12:00:23.609Z,58.01
2022-10-26T12:02:57.169Z,57.54
2022-10-26T12:05:37.311Z,57.88
2022-10-26T12:08:09.447Z,58.29
2022-10-26T12:10:41.254Z,58.77
2022-10-26T12:13:21.237Z,59.10
2022-10-26T12:16:03.586Z,59.19
2022-10-26T12:18:55.114Z,59.01
2022-10-26T12:21:28.926Z,60.15
2022-10-26T12:23:59.764Z,58.95
2022-10-26T12:26:58.103Z,59.33
2022-10-26T12:29:38.299Z,59.55
2022-10-26T12:32:55.791Z,59.17
2022-10-26T12:35:46.759Z,58.05
2022-10-26T12:38:58.282Z,59.03
2022-10-26T12:41:27.514Z,59.41
2022-10-26T12:44:25.864Z,59.21
2022-10-26T12:46:54.193Z,58.88
2022-10-26T12:49:58.337Z,59.56
2022-10-26T12:52:59.726Z,59.76
2022-10-26T12:55:53.761Z,59.50
2022-10-26T12:58:38.409Z,60.44
2022-10-26T13:01:29.279Z,60.47
2022-10-26T13:04:10.368Z,61.00
2022-10-26T13:06:55.526Z,61.33
2022-10-26T13:09:29.021Z,61.04
2022-10-26T13:11:59.314Z,61.41
2022-10-26T13:14:32.696Z,60.35
2022-10-26T13:17:02.269Z,59.97
2022-10-26T13:19:35.536Z,59.96
2022-10-26T13:22:04.513Z,61.18
2022-10-26T13:27:43.412Z,60.38
2022-10-26T13:30:46.019Z,60.07
2022-10-26T13:33:37.530Z,60.23
2022-10-26T13:36:18.490Z,61.31
2022-10-26T13:38:48.296Z,61.55
2022-10-26T13:41:28.486Z,60.73
2022-10-26T13:43:58.898Z,60.83
2022-10-26T13:46:29.156Z,62.09
2022-10-26T13:49:06.035Z,61.87
2022-10-26T13:51:42.155Z,61.92
2022-10-26T13:54:21.102Z,62.40
2022-10-26T13:57:05.963Z,62.50
2022-10-26T13:59:40.077Z,62.77
2022-10-26T14:02:15.977Z,61.71
2022-10-26T14:04:48.300Z,61.42
2022-10-26T14:07:23.206Z,61.64
2022-10-26T14:09:53.844Z,62.47
2022-10-26T14:12:24.857Z,62.97
2022-10-26T14:14:54.761Z,62.95
2022-10-26T14:17:26.051Z,63.07
2022-10-26T14:19:54.847Z,63.15
2022-10-26T14:22:27.886Z,63.02
2022-10-26T14:24:57.986Z,62.93
2022-10-26T14:27:32.555Z,62.81
2022-10-26T14:30:21.613Z,63.05
2022-10-26T14:32:50.343Z,63.17
2022-10-26T14:35:20.109Z,62.96
2022-10-26T14:37:53.538Z,63.01
2022-10-26T14:40:25.257Z,63.53
2022-10-26T14:42:57.900Z,63.05
2022-10-26T14:45:49.355Z,62.51
2022-10-26T14:48:32.103Z,62.65
2022-10-26T14:51:02.118Z,62.91
2022-10-26T14:53:37.913Z,62.74
2022-10-26T14:56:18.923Z,62.34
2022-10-26T14:58:48.762Z,62.44
2022-10-26T15:01:32.024Z,62.38
2022-10-26T15:04:05.905Z,62.52
2022-10-26T15:06:42.145Z,62.61
2022-10-26T15:09:39.149Z,63.06
2022-10-26T15:12:09.574Z,63.24
2022-10-26T15:14:44.298Z,63.15
2022-10-26T15:17:22.056Z,64.01
2022-10-26T15:19:51.889Z,64.00
2022-10-26T15:22:31.793Z,64.67
2022-10-26T15:25:05.376Z,65.23
2022-10-26T15:27:34.909Z,66.15
2022-10-26T15:30:27.776Z,66.13
2022-10-26T15:32:56.974Z,66.95
2022-10-26T15:35:30.526Z,66.94
2022-10-26T15:38:01.183Z,67.88
2022-10-26T15:40:32.297Z,68.42
2022-10-26T15:43:02.194Z,69.58
2022-10-26T15:45:37.557Z,69.85
2022-10-26T15:48:25.728Z,70.52
2022-10-26T15:50:54.440Z,70.71
2022-10-26T15:53:24.728Z,70.58
2022-10-26T15:55:54.253Z,70.22
2022-10-26T15:58:23.046Z,70.80
2022-10-26T16:00:53.002Z,71.44
2022-10-26T16:03:23.268Z,70.83
2022-10-26T16:05:57.131Z,70.96
2022-10-26T16:08:27.566Z,71.43
2022-10-26T16:10:55.866Z,71.62
2022-10-26T16:13:24.413Z,72.26
2022-10-26T16:15:55.095Z,72.44
2022-10-26T16:18:23.322Z,72.91
2022-10-26T16:20:51.499Z,72.95
2022-10-26T16:23:19.816Z,73.18
2022-10-26T16:25:48.342Z,73.07
2022-10-26T16:28:17.984Z,72.58
2022-10-26T16:30:46.282Z,72.95
2022-10-26T16:33:15.919Z,72.69
2022-10-26T16:35:45.205Z,73.30
2022-10-26T16:38:13.506Z,73.11
2022-10-26T16:40:43.326Z,72.94
2022-10-26T16:43:12.259Z,73.26
2022-10-26T16:45:41.794Z,73.21
2022-10-26T16:48:15.013Z,73.44
2022-10-26T16:50:44.640Z,74.01
2022-10-26T16:53:12.853Z,74.07
2022-10-26T16:58:09.360Z,74.26
2022-10-26T17:00:38.449Z,74.48
2022-10-26T17:03:06.745Z,74.69
2022-10-26T17:05:35.057Z,74.50
2022-10-26T17:08:04.657Z,74.38
2022-10-26T17:10:33.695Z,74.81
2022-10-26T17:13:01.965Z,74.92
2022-10-26T17:15:30.292Z,74.57
2022-10-26T17:17:58.474Z,74.82
2022-10-26T17:20:26.777Z,74.85
2022-10-26T17:22:54.934Z,75.28
2022-10-26T17:25:24.658Z,75.20
2022-10-26T17:27:53.014Z,75.54
2022-10-26T17:30:21.269Z,75.25
2022-10-26T17:32:49.726Z,75.63
2022-10-26T17:35:19.075Z,75.57
2022-10-26T17:37:47.433Z,75.54
2022-10-26T17:40:15.792Z,75.25
2022-10-26T17:42:45.500Z,75.90
2022-10-26T17:45:13.789Z,75.73
2022-10-26T17:47:42.044Z,75.87
2022-10-26T17:50:10.649Z,75.80
2022-10-26T17:52:38.881Z,75.95
2022-10-26T17:55:07.640Z,76.09
2022-10-26T17:57:35.934Z,76.21
2022-10-26T18:00:07.748Z,75.98
2022-10-26T18:02:41.865Z,76.32
2022-10-26T18:05:11.268Z,76.39
2022-10-26T18:07:39.448Z,76.14
2022-10-26T18:10:32.848Z,76.69
2022-10-26T18:12:56.508Z,76.49
2022-10-26T18:15:26.203Z,76.77
2022-10-26T18:17:58.228Z,77.04
2022-10-26T18:20:28.870Z,76.68
2022-10-26T18:22:57.366Z,76.71
2022-10-26T18:25:25.716Z,77.24
2022-10-26T18:27:54.073Z,77.33
2022-10-26T18:30:22.722Z,77.21
2022-10-26T18:32:53.400Z,77.14
2022-10-26T18:35:21.991Z,76.88
2022-10-26T18:37:50.381Z,77.09
2022-10-26T18:40:18.850Z,76.78
2022-10-26T18:42:48.090Z,77.12
2022-10-26T18:45:16.550Z,77.02
2022-10-26T18:47:44.758Z,77.05
2022-10-26T18:50:14.480Z,76.83
2022-10-26T18:52:42.738Z,77.26
2022-10-26T18:55:11.304Z,77.68
2022-10-26T18:57:39.593Z,77.71
2022-10-26T19:00:09.237Z,78.05
2022-10-26T19:02:37.498Z,78.06
2022-10-26T19:05:06.614Z,77.80
2022-10-26T19:07:37.987Z,78.16
2022-10-26T19:10:07.071Z,78.09
2022-10-26T19:12:35.309Z,78.20
2022-10-26T19:15:03.669Z,78.67
2022-10-26T19:17:31.833Z,78.91
2022-10-26T19:20:01.037Z,78.31
2022-10-26T19:22:29.265Z,78.76
2022-10-26T19:24:58.933Z,78.54
2022-10-26T19:27:27.166Z,78.91
2022-10-26T19:29:55.413Z,78.85
2022-10-26T19:32:23.563Z,79.00
2022-10-26T19:34:51.838Z,78.73
2022-10-26T19:37:21.133Z,79.07
2022-10-26T19:39:50.144Z,79.09
2022-10-26T19:42:19.752Z,78.72
2022-10-26T19:44:48.038Z,79.08
2022-10-26T19:47:17.351Z,79.14
2022-10-26T19:49:46.639Z,78.90
2022-10-26T19:52:14.897Z,79.30
2022-10-26T19:54:43.139Z,79.59
2022-10-26T19:57:11.422Z,79.54
2022-10-26T19:59:41.042Z,79.85
2022-10-26T20:02:09.308Z,79.70
2022-10-26T20:04:37.575Z,79.54
2022-10-26T20:07:06.371Z,79.71
2022-10-26T20:09:34.647Z,79.96
2022-10-26T20:12:02.829Z,79.70
2022-10-26T20:14:32.143Z,79.72
2022-10-26T20:17:05.138Z,79.55
2022-10-26T20:19:33.439Z,79.95
2022-10-26T20:22:01.662Z,79.71
2022-10-26T20:24:29.983Z,79.80
2022-10-26T20:26:58.219Z,79.61
2022-10-26T20:29:26.476Z,79.25
2022-10-26T20:31:56.239Z,79.14
2022-10-26T20:34:26.061Z,79.62
2022-10-26T20:36:54.351Z,79.59
2022-10-26T20:39:23.155Z,79.78
2022-10-26T20:41:52.036Z,79.89
2022-10-26T20:44:26.906Z,79.54
2022-10-26T20:46:55.770Z,79.73
2022-10-26T20:49:26.097Z,79.81
2022-10-26T20:52:20.036Z,80.34
2022-10-26T20:54:55.324Z,80.38
2022-10-26T20:57:30.289Z,80.24
2022-10-26T21:00:04.021Z,80.19
2022-10-26T21:02:32.547Z,80.19
2022-10-26T21:05:02.430Z,79.87
2022-10-26T21:07:30.695Z,80.23
2022-10-26T21:09:58.957Z,80.44
2022-10-26T21:12:27.269Z,80.24
2022-10-26T21:14:55.652Z,80.22
2022-10-26T21:17:23.964Z,80.63
2022-10-26T21:19:52.187Z,80.33
2022-10-26T21:22:21.952Z,80.51
2022-10-26T21:24:50.123Z,80.59
2022-10-26T21:27:18.508Z,80.56
2022-10-26T21:29:46.763Z,80.39
2022-10-26T21:32:15.033Z,80.40
2022-10-26T21:34:43.202Z,80.56
2022-10-26T21:37:11.641Z,80.42
2022-10-26T21:39:41.270Z,80.27
2022-10-26T21:42:10.379Z,80.47
2022-10-26T21:44:41.338Z,80.70
2022-10-26T21:47:10.540Z,80.82
2022-10-26T21:49:38.870Z,80.99
2022-10-26T21:52:08.337Z,81.31
2022-10-26T21:54:36.576Z,81.07
2022-10-26T21:57:06.967Z,80.96
2022-10-26T21:59:35.289Z,81.23
2022-10-26T22:02:04.057Z,81.26
2022-10-26T22:04:32.850Z,81.29
2022-10-26T22:07:01.052Z,81.09
2022-10-26T22:09:30.444Z,81.26
2022-10-26T22:11:59.757Z,81.26
2022-10-26T22:14:29.425Z,81.15
2022-10-26T22:16:57.641Z,81.48
2022-10-26T22:19:25.859Z,81.60
2022-10-26T22:21:54.101Z,81.88
2022-10-26T22:24:22.314Z,81.78
2022-10-26T22:26:51.590Z,81.41
2022-10-26T22:29:20.048Z,81.59
2022-10-26T22:31:50.797Z,81.75
2022-10-26T22:34:19.124Z,82.01
2022-10-26T22:36:47.407Z,81.90
2022-10-26T22:39:15.651Z,81.46
2022-10-26T22:41:44.194Z,81.57
2022-10-26T22:44:12.379Z,81.90
2022-10-26T22:46:40.661Z,81.68
2022-10-26T22:49:12.625Z,81.97
2022-10-26T22:51:41.117Z,82.16
2022-10-26T22:54:09.372Z,82.60
2022-10-26T22:56:37.659Z,82.42
2022-10-26T22:59:05.927Z,82.58
2022-10-26T23:01:37.625Z,82.30
2022-10-26T23:04:06.427Z,82.21
2022-10-26T23:06:36.080Z,82.37
2022-10-26T23:09:04.537Z,82.30
2022-10-26T23:11:32.747Z,82.24
2022-10-26T23:14:03.145Z,81.76
2022-10-26T23:16:32.351Z,81.82
2022-10-26T23:19:01.177Z,81.57
2022-10-26T23:21:30.055Z,81.96
2022-10-26T23:23:59.979Z,81.71
2022-10-26T23:26:28.208Z,82.07
2022-10-26T23:28:56.443Z,81.75
2022-10-26T23:31:26.386Z,81.74
2022-10-26T23:33:56.090Z,81.97
2022-10-26T23:36:24.955Z,81.64
2022-10-26T23:38:54.206Z,81.85
2022-10-26T23:41:23.852Z,81.71
2022-10-26T23:43:52.079Z,82.13
2022-10-26T23:46:21.362Z,81.87
2022-10-26T23:48:49.634Z,81.95
2022-10-26T23:51:17.945Z,81.74
2022-10-26T23:53:46.205Z,81.90
2022-10-26T23:56:14.471Z,82.00
2022-10-26T23:58:44.070Z,81.73
